sensor_id;sensor_type;location;lat;lon;timestamp;temperature;humidity
76607;DHT22;65498;50.916;4.698;2022-12-18T00:01:31;21.80;30.00
76607;DHT22;65498;50.916;4.698;2022-12-18T00:04:01;21.80;29.50
76607;DHT22;65498;50.916;4.698;2022-12-18T00:06:30;21.70;29.60
76607;DHT22;65498;50.916;4.698;2022-12-18T00:09:00;21.70;29.60
76607;DHT22;65498;50.916;4.698;2022-12-18T00:11:30;21.70;31.90
76607;DHT22;65498;50.916;4.698;2022-12-18T00:13:59;21.70;29.90
76607;DHT22;65498;50.916;4.698;2022-12-18T00:16:28;21.80;29.70
76607;DHT22;65498;50.916;4.698;2022-12-18T00:18:59;21.80;29.50
76607;DHT22;65498;50.916;4.698;2022-12-18T00:21:28;21.80;29.50
76607;DHT22;65498;50.916;4.698;2022-12-18T00:23:56;21.90;29.10
76607;DHT22;65498;50.916;4.698;2022-12-18T00:26:26;21.80;29.00
76607;DHT22;65498;50.916;4.698;2022-12-18T00:28:57;21.90;28.90
76607;DHT22;65498;50.916;4.698;2022-12-18T00:31:24;22.00;28.80
76607;DHT22;65498;50.916;4.698;2022-12-18T00:33:54;22.00;28.60
76607;DHT22;65498;50.916;4.698;2022-12-18T00:36:25;22.00;28.40
76607;DHT22;65498;50.916;4.698;2022-12-18T00:38:57;22.00;28.30
76607;DHT22;65498;50.916;4.698;2022-12-18T00:41:26;22.00;28.30
76607;DHT22;65498;50.916;4.698;2022-12-18T00:44:14;22.00;28.00
76607;DHT22;65498;50.916;4.698;2022-12-18T00:46:43;22.00;27.70
76607;DHT22;65498;50.916;4.698;2022-12-18T00:49:11;21.90;27.80
76607;DHT22;65498;50.916;4.698;2022-12-18T00:51:39;21.80;28.40
76607;DHT22;65498;50.916;4.698;2022-12-18T00:54:07;21.90;28.10
76607;DHT22;65498;50.916;4.698;2022-12-18T00:56:39;21.90;28.00
76607;DHT22;65498;50.916;4.698;2022-12-18T00:59:07;21.90;27.90
76607;DHT22;65498;50.916;4.698;2022-12-18T01:01:34;22.00;27.80
76607;DHT22;65498;50.916;4.698;2022-12-18T01:04:03;22.00;27.80
76607;DHT22;65498;50.916;4.698;2022-12-18T01:06:30;22.00;27.70
76607;DHT22;65498;50.916;4.698;2022-12-18T01:08:58;22.00;27.50
76607;DHT22;65498;50.916;4.698;2022-12-18T01:11:25;22.00;27.50
76607;DHT22;65498;50.916;4.698;2022-12-18T01:13:54;22.00;27.50
76607;DHT22;65498;50.916;4.698;2022-12-18T01:16:21;22.10;27.70
76607;DHT22;65498;50.916;4.698;2022-12-18T01:18:51;22.10;27.40
76607;DHT22;65498;50.916;4.698;2022-12-18T01:21:20;22.00;27.40
76607;DHT22;65498;50.916;4.698;2022-12-18T01:23:53;22.00;27.30
76607;DHT22;65498;50.916;4.698;2022-12-18T01:26:21;22.00;27.30
76607;DHT22;65498;50.916;4.698;2022-12-18T01:28:48;22.00;27.60
76607;DHT22;65498;50.916;4.698;2022-12-18T01:31:22;21.90;28.20
76607;DHT22;65498;50.916;4.698;2022-12-18T01:33:50;21.60;28.80
76607;DHT22;65498;50.916;4.698;2022-12-18T01:36:24;21.20;29.40
76607;DHT22;65498;50.916;4.698;2022-12-18T01:38:52;20.90;30.00
76607;DHT22;65498;50.916;4.698;2022-12-18T01:41:24;20.80;30.20
76607;DHT22;65498;50.916;4.698;2022-12-18T01:46:22;21.00;30.10
76607;DHT22;65498;50.916;4.698;2022-12-18T01:49:00;21.10;30.00
76607;DHT22;65498;50.916;4.698;2022-12-18T01:51:24;21.30;30.00
76607;DHT22;65498;50.916;4.698;2022-12-18T01:53:53;21.40;29.90
76607;DHT22;65498;50.916;4.698;2022-12-18T01:56:21;21.30;30.00
76607;DHT22;65498;50.916;4.698;2022-12-18T02:01:23;20.90;30.20
76607;DHT22;65498;50.916;4.698;2022-12-18T02:03:52;20.80;30.10
76607;DHT22;65498;50.916;4.698;2022-12-18T02:06:27;20.80;30.50
76607;DHT22;65498;50.916;4.698;2022-12-18T02:09:32;20.80;31.30
76607;DHT22;65498;50.916;4.698;2022-12-18T02:11:49;20.90;31.20
76607;DHT22;65498;50.916;4.698;2022-12-18T02:14:37;21.00;31.00
76607;DHT22;65498;50.916;4.698;2022-12-18T02:22:43;21.10;31.20
76607;DHT22;65498;50.916;4.698;2022-12-18T02:28:14;21.00;31.20
76607;DHT22;65498;50.916;4.698;2022-12-18T02:30:43;21.00;31.30
76607;DHT22;65498;50.916;4.698;2022-12-18T02:33:12;21.00;31.30
76607;DHT22;65498;50.916;4.698;2022-12-18T02:35:41;21.00;32.40
76607;DHT22;65498;50.916;4.698;2022-12-18T02:38:09;20.90;31.80
76607;DHT22;65498;50.916;4.698;2022-12-18T02:40:39;20.80;31.90
76607;DHT22;65498;50.916;4.698;2022-12-18T02:43:13;20.60;31.80
76607;DHT22;65498;50.916;4.698;2022-12-18T02:45:50;20.40;32.80
76607;DHT22;65498;50.916;4.698;2022-12-18T02:48:19;20.50;32.10
76607;DHT22;65498;50.916;4.698;2022-12-18T02:51:11;20.60;32.40
76607;DHT22;65498;50.916;4.698;2022-12-18T02:53:43;20.70;32.10
76607;DHT22;65498;50.916;4.698;2022-12-18T02:59:01;20.70;32.20
76607;DHT22;65498;50.916;4.698;2022-12-18T03:01:43;20.80;31.90
76607;DHT22;65498;50.916;4.698;2022-12-18T03:05:07;20.80;31.90
76607;DHT22;65498;50.916;4.698;2022-12-18T03:06:57;20.80;31.90
76607;DHT22;65498;50.916;4.698;2022-12-18T03:09:33;20.80;32.00
76607;DHT22;65498;50.916;4.698;2022-12-18T03:12:21;20.80;32.10
76607;DHT22;65498;50.916;4.698;2022-12-18T03:15:00;20.70;32.10
76607;DHT22;65498;50.916;4.698;2022-12-18T03:17:30;20.70;32.00
76607;DHT22;65498;50.916;4.698;2022-12-18T03:20:05;20.70;32.10
76607;DHT22;65498;50.916;4.698;2022-12-18T03:22:32;20.80;32.30
76607;DHT22;65498;50.916;4.698;2022-12-18T03:25:03;20.80;32.00
76607;DHT22;65498;50.916;4.698;2022-12-18T03:27:33;20.80;32.30
76607;DHT22;65498;50.916;4.698;2022-12-18T03:30:05;20.80;32.20
76607;DHT22;65498;50.916;4.698;2022-12-18T03:32:50;20.70;32.10
76607;DHT22;65498;50.916;4.698;2022-12-18T03:35:26;20.80;32.00
76607;DHT22;65498;50.916;4.698;2022-12-18T03:37:48;20.70;32.10
76607;DHT22;65498;50.916;4.698;2022-12-18T03:40:16;20.80;32.20
76607;DHT22;65498;50.916;4.698;2022-12-18T03:43:03;20.80;32.20
76607;DHT22;65498;50.916;4.698;2022-12-18T03:45:37;20.70;32.20
76607;DHT22;65498;50.916;4.698;2022-12-18T03:48:17;20.70;32.00
76607;DHT22;65498;50.916;4.698;2022-12-18T03:51:13;20.80;32.20
76607;DHT22;65498;50.916;4.698;2022-12-18T03:53:50;20.70;32.20
76607;DHT22;65498;50.916;4.698;2022-12-18T03:56:16;20.70;32.50
76607;DHT22;65498;50.916;4.698;2022-12-18T03:58:46;20.70;32.40
76607;DHT22;65498;50.916;4.698;2022-12-18T04:01:16;20.70;32.40
76607;DHT22;65498;50.916;4.698;2022-12-18T04:03:46;20.70;32.40
76607;DHT22;65498;50.916;4.698;2022-12-18T04:06:16;20.70;32.40
76607;DHT22;65498;50.916;4.698;2022-12-18T04:08:44;20.70;32.20
76607;DHT22;65498;50.916;4.698;2022-12-18T04:11:13;20.60;32.10
76607;DHT22;65498;50.916;4.698;2022-12-18T04:13:42;20.60;32.10
76607;DHT22;65498;50.916;4.698;2022-12-18T04:16:10;20.70;32.20
76607;DHT22;65498;50.916;4.698;2022-12-18T04:18:37;20.60;32.20
76607;DHT22;65498;50.916;4.698;2022-12-18T04:21:05;20.60;32.40
76607;DHT22;65498;50.916;4.698;2022-12-18T04:23:32;20.60;32.50
76607;DHT22;65498;50.916;4.698;2022-12-18T04:26:00;20.60;32.30
76607;DHT22;65498;50.916;4.698;2022-12-18T04:28:27;20.50;32.60
76607;DHT22;65498;50.916;4.698;2022-12-18T04:30:55;20.50;32.60
76607;DHT22;65498;50.916;4.698;2022-12-18T04:33:22;20.50;32.40
76607;DHT22;65498;50.916;4.698;2022-12-18T04:35:50;20.60;32.30
76607;DHT22;65498;50.916;4.698;2022-12-18T04:38:17;20.60;32.30
76607;DHT22;65498;50.916;4.698;2022-12-18T04:40:45;20.50;32.40
76607;DHT22;65498;50.916;4.698;2022-12-18T04:43:12;20.50;32.50
76607;DHT22;65498;50.916;4.698;2022-12-18T04:45:40;20.50;32.50
76607;DHT22;65498;50.916;4.698;2022-12-18T04:48:08;20.50;32.50
76607;DHT22;65498;50.916;4.698;2022-12-18T04:50:35;20.40;32.60
76607;DHT22;65498;50.916;4.698;2022-12-18T04:53:03;20.30;33.10
76607;DHT22;65498;50.916;4.698;2022-12-18T04:55:30;20.30;33.50
76607;DHT22;65498;50.916;4.698;2022-12-18T04:57:58;20.10;32.80
76607;DHT22;65498;50.916;4.698;2022-12-18T05:00:25;20.00;32.90
76607;DHT22;65498;50.916;4.698;2022-12-18T05:02:53;20.00;33.60
76607;DHT22;65498;50.916;4.698;2022-12-18T05:05:20;20.00;33.00
76607;DHT22;65498;50.916;4.698;2022-12-18T05:07:48;20.10;33.20
76607;DHT22;65498;50.916;4.698;2022-12-18T05:10:15;20.10;33.40
76607;DHT22;65498;50.916;4.698;2022-12-18T05:12:43;20.10;33.50
76607;DHT22;65498;50.916;4.698;2022-12-18T05:15:30;20.10;33.50
76607;DHT22;65498;50.916;4.698;2022-12-18T05:17:59;20.10;33.50
76607;DHT22;65498;50.916;4.698;2022-12-18T05:20:28;20.20;33.40
76607;DHT22;65498;50.916;4.698;2022-12-18T05:22:55;20.10;33.40
76607;DHT22;65498;50.916;4.698;2022-12-18T05:25:23;20.10;33.50
76607;DHT22;65498;50.916;4.698;2022-12-18T05:27:51;20.10;33.20
76607;DHT22;65498;50.916;4.698;2022-12-18T05:30:18;20.10;33.20
76607;DHT22;65498;50.916;4.698;2022-12-18T05:32:46;20.10;32.80
76607;DHT22;65498;50.916;4.698;2022-12-18T05:35:14;20.20;33.50
76607;DHT22;65498;50.916;4.698;2022-12-18T05:37:41;20.20;33.40
76607;DHT22;65498;50.916;4.698;2022-12-18T05:40:10;20.20;33.50
76607;DHT22;65498;50.916;4.698;2022-12-18T05:42:37;20.20;33.20
76607;DHT22;65498;50.916;4.698;2022-12-18T05:45:06;20.20;33.10
76607;DHT22;65498;50.916;4.698;2022-12-18T05:47:33;20.20;33.30
76607;DHT22;65498;50.916;4.698;2022-12-18T05:50:01;20.10;33.20
76607;DHT22;65498;50.916;4.698;2022-12-18T05:52:28;20.10;33.20
76607;DHT22;65498;50.916;4.698;2022-12-18T05:54:57;20.10;33.30
76607;DHT22;65498;50.916;4.698;2022-12-18T05:57:25;20.10;33.20
76607;DHT22;65498;50.916;4.698;2022-12-18T05:59:53;20.10;33.20
76607;DHT22;65498;50.916;4.698;2022-12-18T06:02:20;20.10;33.40
76607;DHT22;65498;50.916;4.698;2022-12-18T06:04:48;20.10;33.20
76607;DHT22;65498;50.916;4.698;2022-12-18T06:07:15;19.90;33.90
76607;DHT22;65498;50.916;4.698;2022-12-18T06:09:43;19.70;33.30
76607;DHT22;65498;50.916;4.698;2022-12-18T06:12:11;19.60;33.20
76607;DHT22;65498;50.916;4.698;2022-12-18T06:14:38;19.50;33.20
76607;DHT22;65498;50.916;4.698;2022-12-18T06:17:06;19.40;32.90
76607;DHT22;65498;50.916;4.698;2022-12-18T06:19:33;19.50;33.10
76607;DHT22;65498;50.916;4.698;2022-12-18T06:22:01;19.70;33.30
76607;DHT22;65498;50.916;4.698;2022-12-18T06:24:29;19.80;33.30
76607;DHT22;65498;50.916;4.698;2022-12-18T06:26:57;19.90;33.40
76607;DHT22;65498;50.916;4.698;2022-12-18T06:29:24;19.90;33.60
76607;DHT22;65498;50.916;4.698;2022-12-18T06:31:52;20.00;33.70
76607;DHT22;65498;50.916;4.698;2022-12-18T06:34:19;19.90;33.90
76607;DHT22;65498;50.916;4.698;2022-12-18T06:36:47;20.00;33.40
76607;DHT22;65498;50.916;4.698;2022-12-18T06:39:14;20.00;33.30
76607;DHT22;65498;50.916;4.698;2022-12-18T06:41:42;20.00;33.30
76607;DHT22;65498;50.916;4.698;2022-12-18T06:44:09;20.00;33.50
76607;DHT22;65498;50.916;4.698;2022-12-18T06:46:37;19.90;33.40
76607;DHT22;65498;50.916;4.698;2022-12-18T06:49:05;20.00;33.50
76607;DHT22;65498;50.916;4.698;2022-12-18T06:51:33;20.00;33.50
76607;DHT22;65498;50.916;4.698;2022-12-18T06:54:00;20.00;33.60
76607;DHT22;65498;50.916;4.698;2022-12-18T06:56:28;20.00;33.60
76607;DHT22;65498;50.916;4.698;2022-12-18T06:58:55;20.10;33.60
76607;DHT22;65498;50.916;4.698;2022-12-18T07:01:23;20.10;33.60
76607;DHT22;65498;50.916;4.698;2022-12-18T07:03:55;20.10;33.50
76607;DHT22;65498;50.916;4.698;2022-12-18T07:06:24;20.00;33.60
76607;DHT22;65498;50.916;4.698;2022-12-18T07:08:54;20.00;33.70
76607;DHT22;65498;50.916;4.698;2022-12-18T07:11:21;20.00;33.40
76607;DHT22;65498;50.916;4.698;2022-12-18T07:13:49;20.00;33.50
76607;DHT22;65498;50.916;4.698;2022-12-18T07:16:19;20.00;33.40
76607;DHT22;65498;50.916;4.698;2022-12-18T07:18:47;20.00;33.50
76607;DHT22;65498;50.916;4.698;2022-12-18T07:21:17;20.00;33.60
76607;DHT22;65498;50.916;4.698;2022-12-18T07:23:46;20.00;33.60
76607;DHT22;65498;50.916;4.698;2022-12-18T07:26:15;20.00;33.70
76607;DHT22;65498;50.916;4.698;2022-12-18T07:28:43;20.00;33.40
76607;DHT22;65498;50.916;4.698;2022-12-18T07:31:14;20.00;33.50
76607;DHT22;65498;50.916;4.698;2022-12-18T07:33:42;20.00;33.50
76607;DHT22;65498;50.916;4.698;2022-12-18T07:36:10;20.00;33.50
76607;DHT22;65498;50.916;4.698;2022-12-18T07:38:38;20.00;33.50
76607;DHT22;65498;50.916;4.698;2022-12-18T07:41:10;20.00;33.50
76607;DHT22;65498;50.916;4.698;2022-12-18T07:43:39;20.10;34.10
76607;DHT22;65498;50.916;4.698;2022-12-18T07:46:08;20.10;33.50
76607;DHT22;65498;50.916;4.698;2022-12-18T07:48:36;20.10;33.70
76607;DHT22;65498;50.916;4.698;2022-12-18T07:51:05;20.10;33.60
76607;DHT22;65498;50.916;4.698;2022-12-18T07:53:35;20.00;33.60
76607;DHT22;65498;50.916;4.698;2022-12-18T07:56:06;20.00;33.50
76607;DHT22;65498;50.916;4.698;2022-12-18T07:58:35;20.00;33.50
76607;DHT22;65498;50.916;4.698;2022-12-18T08:01:12;20.00;33.60
76607;DHT22;65498;50.916;4.698;2022-12-18T08:03:39;20.10;33.20
76607;DHT22;65498;50.916;4.698;2022-12-18T08:06:08;20.00;32.20
76607;DHT22;65498;50.916;4.698;2022-12-18T08:08:36;20.00;33.40
76607;DHT22;65498;50.916;4.698;2022-12-18T08:11:04;20.10;33.40
76607;DHT22;65498;50.916;4.698;2022-12-18T08:13:32;20.30;33.10
76607;DHT22;65498;50.916;4.698;2022-12-18T08:16:01;20.50;32.40
76607;DHT22;65498;50.916;4.698;2022-12-18T08:18:28;20.60;32.30
76607;DHT22;65498;50.916;4.698;2022-12-18T08:20:56;20.70;32.20
76607;DHT22;65498;50.916;4.698;2022-12-18T08:23:23;20.80;31.70
76607;DHT22;65498;50.916;4.698;2022-12-18T08:25:51;20.70;31.60
76607;DHT22;65498;50.916;4.698;2022-12-18T08:28:18;20.70;31.60
76607;DHT22;65498;50.916;4.698;2022-12-18T08:30:50;20.60;31.80
76607;DHT22;65498;50.916;4.698;2022-12-18T08:33:16;20.60;31.80
76607;DHT22;65498;50.916;4.698;2022-12-18T08:35:43;20.70;31.80
76607;DHT22;65498;50.916;4.698;2022-12-18T08:38:11;20.90;31.40
76607;DHT22;65498;50.916;4.698;2022-12-18T08:40:38;21.00;31.10
76607;DHT22;65498;50.916;4.698;2022-12-18T08:43:07;21.00;30.90
76607;DHT22;65498;50.916;4.698;2022-12-18T08:45:52;21.10;30.70
76607;DHT22;65498;50.916;4.698;2022-12-18T08:48:21;21.10;30.70
76607;DHT22;65498;50.916;4.698;2022-12-18T08:50:59;21.10;30.60
76607;DHT22;65498;50.916;4.698;2022-12-18T08:53:26;21.10;30.30
76607;DHT22;65498;50.916;4.698;2022-12-18T08:55:56;21.00;30.10
76607;DHT22;65498;50.916;4.698;2022-12-18T08:58:23;21.00;30.30
76607;DHT22;65498;50.916;4.698;2022-12-18T09:00:51;21.00;30.50
76607;DHT22;65498;50.916;4.698;2022-12-18T09:03:19;21.10;30.40
76607;DHT22;65498;50.916;4.698;2022-12-18T09:05:49;21.10;30.00
76607;DHT22;65498;50.916;4.698;2022-12-18T09:08:17;21.10;30.00
76607;DHT22;65498;50.916;4.698;2022-12-18T09:10:46;21.10;30.00
76607;DHT22;65498;50.916;4.698;2022-12-18T09:13:14;21.10;30.00
76607;DHT22;65498;50.916;4.698;2022-12-18T09:15:44;21.10;32.10
76607;DHT22;65498;50.916;4.698;2022-12-18T09:18:12;21.10;30.80
76607;DHT22;65498;50.916;4.698;2022-12-18T09:20:40;21.10;30.70
76607;DHT22;65498;50.916;4.698;2022-12-18T09:23:08;21.20;30.70
76607;DHT22;65498;50.916;4.698;2022-12-18T09:25:36;21.30;30.90
76607;DHT22;65498;50.916;4.698;2022-12-18T09:28:12;21.30;30.40
76607;DHT22;65498;50.916;4.698;2022-12-18T09:30:33;21.30;30.60
76607;DHT22;65498;50.916;4.698;2022-12-18T09:33:01;21.30;30.40
76607;DHT22;65498;50.916;4.698;2022-12-18T09:35:28;21.30;30.70
76607;DHT22;65498;50.916;4.698;2022-12-18T09:37:56;21.40;30.90
76607;DHT22;65498;50.916;4.698;2022-12-18T09:40:25;21.40;30.70
76607;DHT22;65498;50.916;4.698;2022-12-18T09:42:57;21.40;30.90
76607;DHT22;65498;50.916;4.698;2022-12-18T09:45:25;21.40;31.00
76607;DHT22;65498;50.916;4.698;2022-12-18T09:47:54;21.40;30.30
76607;DHT22;65498;50.916;4.698;2022-12-18T09:50:28;21.40;30.00
76607;DHT22;65498;50.916;4.698;2022-12-18T09:52:58;21.30;30.10
76607;DHT22;65498;50.916;4.698;2022-12-18T09:55:34;21.40;30.30
76607;DHT22;65498;50.916;4.698;2022-12-18T09:58:11;21.40;30.30
76607;DHT22;65498;50.916;4.698;2022-12-18T10:00:34;21.50;30.10
76607;DHT22;65498;50.916;4.698;2022-12-18T10:03:08;21.50;30.20
76607;DHT22;65498;50.916;4.698;2022-12-18T10:06:02;21.50;30.00
76607;DHT22;65498;50.916;4.698;2022-12-18T10:08:54;21.50;30.00
76607;DHT22;65498;50.916;4.698;2022-12-18T10:11:34;21.50;30.00
76607;DHT22;65498;50.916;4.698;2022-12-18T10:14:10;21.40;30.10
76607;DHT22;65498;50.916;4.698;2022-12-18T10:19:18;21.40;30.30
76607;DHT22;65498;50.916;4.698;2022-12-18T10:22:11;21.40;30.40
76607;DHT22;65498;50.916;4.698;2022-12-18T10:27:24;21.50;30.00
76607;DHT22;65498;50.916;4.698;2022-12-18T10:29:53;21.40;29.90
76607;DHT22;65498;50.916;4.698;2022-12-18T10:32:29;21.50;30.40
76607;DHT22;65498;50.916;4.698;2022-12-18T10:34:57;21.60;29.90
76607;DHT22;65498;50.916;4.698;2022-12-18T10:37:28;21.70;29.80
76607;DHT22;65498;50.916;4.698;2022-12-18T10:40:14;21.70;29.70
76607;DHT22;65498;50.916;4.698;2022-12-18T10:42:42;21.70;29.70
76607;DHT22;65498;50.916;4.698;2022-12-18T10:45:16;21.70;29.50
76607;DHT22;65498;50.916;4.698;2022-12-18T10:47:48;21.70;29.70
76607;DHT22;65498;50.916;4.698;2022-12-18T10:50:33;21.60;29.80
76607;DHT22;65498;50.916;4.698;2022-12-18T10:53:03;21.60;29.90
76607;DHT22;65498;50.916;4.698;2022-12-18T10:55:35;21.70;29.90
76607;DHT22;65498;50.916;4.698;2022-12-18T10:58:27;21.70;29.90
76607;DHT22;65498;50.916;4.698;2022-12-18T11:01:12;21.70;29.80
76607;DHT22;65498;50.916;4.698;2022-12-18T11:06:24;21.70;30.90
76607;DHT22;65498;50.916;4.698;2022-12-18T11:09:04;21.70;31.40
76607;DHT22;65498;50.916;4.698;2022-12-18T11:11:33;21.80;31.40
76607;DHT22;65498;50.916;4.698;2022-12-18T11:14:15;21.80;31.20
76607;DHT22;65498;50.916;4.698;2022-12-18T11:16:47;21.80;31.30
76607;DHT22;65498;50.916;4.698;2022-12-18T11:19:30;21.70;31.20
76607;DHT22;65498;50.916;4.698;2022-12-18T11:21:58;21.80;30.70
76607;DHT22;65498;50.916;4.698;2022-12-18T11:24:34;21.80;30.70
76607;DHT22;65498;50.916;4.698;2022-12-18T11:27:05;21.80;30.90
76607;DHT22;65498;50.916;4.698;2022-12-18T11:29:35;21.70;31.20
76607;DHT22;65498;50.916;4.698;2022-12-18T11:34:44;21.20;31.80
76607;DHT22;65498;50.916;4.698;2022-12-18T11:37:13;21.50;30.70
76607;DHT22;65498;50.916;4.698;2022-12-18T11:39:56;21.60;30.60
76607;DHT22;65498;50.916;4.698;2022-12-18T11:45:29;21.70;30.10
76607;DHT22;65498;50.916;4.698;2022-12-18T11:48:18;21.60;30.00
76607;DHT22;65498;50.916;4.698;2022-12-18T11:50:52;21.60;29.70
76607;DHT22;65498;50.916;4.698;2022-12-18T11:53:20;21.70;29.00
76607;DHT22;65498;50.916;4.698;2022-12-18T11:56:23;21.90;29.00
76607;DHT22;65498;50.916;4.698;2022-12-18T12:12:16;21.90;29.20
76607;DHT22;65498;50.916;4.698;2022-12-18T12:15:03;21.90;29.00
76607;DHT22;65498;50.916;4.698;2022-12-18T12:17:27;21.80;28.90
76607;DHT22;65498;50.916;4.698;2022-12-18T12:20:14;21.70;29.80
76607;DHT22;65498;50.916;4.698;2022-12-18T12:33:51;21.70;29.60
76607;DHT22;65498;50.916;4.698;2022-12-18T12:36:38;21.60;29.80
76607;DHT22;65498;50.916;4.698;2022-12-18T12:39:06;21.50;30.10
76607;DHT22;65498;50.916;4.698;2022-12-18T12:41:35;21.60;30.10
76607;DHT22;65498;50.916;4.698;2022-12-18T12:44:21;21.80;29.80
76607;DHT22;65498;50.916;4.698;2022-12-18T12:46:49;22.00;29.50
76607;DHT22;65498;50.916;4.698;2022-12-18T12:49:22;22.10;29.50
76607;DHT22;65498;50.916;4.698;2022-12-18T12:52:06;22.00;29.40
76607;DHT22;65498;50.916;4.698;2022-12-18T12:54:35;22.00;29.40
76607;DHT22;65498;50.916;4.698;2022-12-18T12:57:21;21.90;29.70
76607;DHT22;65498;50.916;4.698;2022-12-18T13:00:11;21.80;29.80
76607;DHT22;65498;50.916;4.698;2022-12-18T13:03:06;21.80;29.90
76607;DHT22;65498;50.916;4.698;2022-12-18T13:05:34;21.90;29.70
76607;DHT22;65498;50.916;4.698;2022-12-18T13:08:05;21.90;29.60
76607;DHT22;65498;50.916;4.698;2022-12-18T13:10:36;21.90;29.70
76607;DHT22;65498;50.916;4.698;2022-12-18T13:13:14;22.00;29.90
76607;DHT22;65498;50.916;4.698;2022-12-18T13:16:04;21.90;30.00
76607;DHT22;65498;50.916;4.698;2022-12-18T13:18:33;21.90;30.00
76607;DHT22;65498;50.916;4.698;2022-12-18T13:21:04;21.90;30.00
76607;DHT22;65498;50.916;4.698;2022-12-18T13:23:36;22.00;29.90
76607;DHT22;65498;50.916;4.698;2022-12-18T13:34:21;21.90;30.30
76607;DHT22;65498;50.916;4.698;2022-12-18T13:36:50;21.90;30.30
76607;DHT22;65498;50.916;4.698;2022-12-18T13:42:37;22.00;30.00
76607;DHT22;65498;50.916;4.698;2022-12-18T13:44:33;22.00;30.10
76607;DHT22;65498;50.916;4.698;2022-12-18T13:47:03;22.00;30.60
76607;DHT22;65498;50.916;4.698;2022-12-18T13:49:38;21.90;31.60
76607;DHT22;65498;50.916;4.698;2022-12-18T13:52:23;21.90;33.20
76607;DHT22;65498;50.916;4.698;2022-12-18T13:54:53;22.00;33.70
76607;DHT22;65498;50.916;4.698;2022-12-18T13:57:33;22.10;33.70
76607;DHT22;65498;50.916;4.698;2022-12-18T14:02:50;22.00;32.80
76607;DHT22;65498;50.916;4.698;2022-12-18T14:08:05;22.10;32.30
76607;DHT22;65498;50.916;4.698;2022-12-18T14:10:33;22.00;32.50
76607;DHT22;65498;50.916;4.698;2022-12-18T14:13:05;22.00;32.80
76607;DHT22;65498;50.916;4.698;2022-12-18T14:18:22;22.10;32.30
76607;DHT22;65498;50.916;4.698;2022-12-18T14:20:57;22.10;32.50
76607;DHT22;65498;50.916;4.698;2022-12-18T14:23:41;22.00;32.80
76607;DHT22;65498;50.916;4.698;2022-12-18T14:26:25;22.00;32.90
76607;DHT22;65498;50.916;4.698;2022-12-18T14:28:56;22.10;32.80
76607;DHT22;65498;50.916;4.698;2022-12-18T14:31:26;22.20;32.50
76607;DHT22;65498;50.916;4.698;2022-12-18T14:33:54;22.20;31.90
76607;DHT22;65498;50.916;4.698;2022-12-18T14:36:24;22.20;32.40
76607;DHT22;65498;50.916;4.698;2022-12-18T14:38:54;22.20;32.70
76607;DHT22;65498;50.916;4.698;2022-12-18T14:41:23;22.30;32.70
76607;DHT22;65498;50.916;4.698;2022-12-18T14:43:52;22.30;32.80
76607;DHT22;65498;50.916;4.698;2022-12-18T14:49:24;22.20;33.20
76607;DHT22;65498;50.916;4.698;2022-12-18T14:51:54;22.00;33.20
76607;DHT22;65498;50.916;4.698;2022-12-18T14:54:24;22.00;33.10
76607;DHT22;65498;50.916;4.698;2022-12-18T14:59:38;22.20;32.90
76607;DHT22;65498;50.916;4.698;2022-12-18T15:02:34;22.10;32.90
76607;DHT22;65498;50.916;4.698;2022-12-18T15:04:41;22.00;33.00
76607;DHT22;65498;50.916;4.698;2022-12-18T15:09:43;22.10;32.30
76607;DHT22;65498;50.916;4.698;2022-12-18T15:14:50;22.10;32.70
76607;DHT22;65498;50.916;4.698;2022-12-18T15:17:20;22.20;32.40
76607;DHT22;65498;50.916;4.698;2022-12-18T15:19:50;22.30;32.50
76607;DHT22;65498;50.916;4.698;2022-12-18T15:22:21;22.30;32.70
76607;DHT22;65498;50.916;4.698;2022-12-18T15:24:50;22.30;32.70
76607;DHT22;65498;50.916;4.698;2022-12-18T15:27:35;22.40;33.10
76607;DHT22;65498;50.916;4.698;2022-12-18T15:32:38;22.20;33.60
76607;DHT22;65498;50.916;4.698;2022-12-18T15:37:39;22.20;33.30
76607;DHT22;65498;50.916;4.698;2022-12-18T15:40:17;22.20;33.30
76607;DHT22;65498;50.916;4.698;2022-12-18T15:42:41;22.20;33.10
76607;DHT22;65498;50.916;4.698;2022-12-18T15:45:27;22.10;33.00
76607;DHT22;65498;50.916;4.698;2022-12-18T15:47:56;22.10;32.70
76607;DHT22;65498;50.916;4.698;2022-12-18T15:50:24;22.00;33.10
76607;DHT22;65498;50.916;4.698;2022-12-18T15:52:54;21.90;33.30
76607;DHT22;65498;50.916;4.698;2022-12-18T15:55:23;21.90;33.20
76607;DHT22;65498;50.916;4.698;2022-12-18T15:58:09;21.90;33.00
76607;DHT22;65498;50.916;4.698;2022-12-18T16:00:39;22.10;31.80
76607;DHT22;65498;50.916;4.698;2022-12-18T16:03:08;22.30;31.60
76607;DHT22;65498;50.916;4.698;2022-12-18T16:05:35;22.20;32.20
76607;DHT22;65498;50.916;4.698;2022-12-18T16:08:03;22.10;31.80
76607;DHT22;65498;50.916;4.698;2022-12-18T16:10:31;22.20;31.50
76607;DHT22;65498;50.916;4.698;2022-12-18T16:12:59;22.30;31.20
76607;DHT22;65498;50.916;4.698;2022-12-18T16:15:26;22.20;31.80
76607;DHT22;65498;50.916;4.698;2022-12-18T16:17:54;22.10;31.80
76607;DHT22;65498;50.916;4.698;2022-12-18T16:20:22;22.20;31.30
76607;DHT22;65498;50.916;4.698;2022-12-18T16:22:50;22.30;31.00
76607;DHT22;65498;50.916;4.698;2022-12-18T16:25:20;22.20;31.30
76607;DHT22;65498;50.916;4.698;2022-12-18T16:27:49;22.20;31.40
76607;DHT22;65498;50.916;4.698;2022-12-18T16:30:20;22.30;31.30
76607;DHT22;65498;50.916;4.698;2022-12-18T16:32:47;22.30;30.90
76607;DHT22;65498;50.916;4.698;2022-12-18T16:35:15;22.40;30.60
76607;DHT22;65498;50.916;4.698;2022-12-18T16:37:43;22.30;30.80
76607;DHT22;65498;50.916;4.698;2022-12-18T16:40:13;22.30;31.00
76607;DHT22;65498;50.916;4.698;2022-12-18T16:42:43;22.20;31.30
76607;DHT22;65498;50.916;4.698;2022-12-18T16:45:14;22.00;31.70
76607;DHT22;65498;50.916;4.698;2022-12-18T16:47:42;22.00;31.80
76607;DHT22;65498;50.916;4.698;2022-12-18T16:50:10;22.10;31.60
76607;DHT22;65498;50.916;4.698;2022-12-18T16:52:38;22.10;32.10
76607;DHT22;65498;50.916;4.698;2022-12-18T16:55:07;22.20;31.30
76607;DHT22;65498;50.916;4.698;2022-12-18T16:57:35;22.20;31.20
76607;DHT22;65498;50.916;4.698;2022-12-18T17:00:04;22.30;31.00
76607;DHT22;65498;50.916;4.698;2022-12-18T17:02:32;22.30;30.50
76607;DHT22;65498;50.916;4.698;2022-12-18T17:04:59;22.40;30.20
76607;DHT22;65498;50.916;4.698;2022-12-18T17:07:27;22.30;29.90
76607;DHT22;65498;50.916;4.698;2022-12-18T17:09:55;22.20;30.20
76607;DHT22;65498;50.916;4.698;2022-12-18T17:12:23;22.10;30.30
76607;DHT22;65498;50.916;4.698;2022-12-18T17:14:52;22.10;30.30
76607;DHT22;65498;50.916;4.698;2022-12-18T17:17:19;22.20;30.30
76607;DHT22;65498;50.916;4.698;2022-12-18T17:19:47;22.20;30.00
76607;DHT22;65498;50.916;4.698;2022-12-18T17:22:14;22.20;30.00
76607;DHT22;65498;50.916;4.698;2022-12-18T17:24:42;22.20;30.10